Accueil
METAR-TAF:

METAR-TAF

Aéroports :

Plaisance, Italie

latitude: 44-55N, longitude: 009-44E, altitude: 134 m

Observation

Le bulletin a été fait il y a 1 heure et 38 minutes, à 17:55 UTC
Vent 3 kt de ouest/nord-ouest
Température 1°C
Humidité 100%
Pression 1011 hPa
Visibilité: 3000 m
Quelques nuages à une hauteur de 200 ft
Nuages épars à une hauteur de 400 ft
brume

METAR: LIMS 121755Z 29003KT 3000 BR FEW002 SCT004 01/01 Q1011 RMK OVC BKN200 VIS MIN 3000 WIND THR30 24004KT YLO

Heure: 20:33 (19:33 UTC)


TAF: absent

Observations et prévisions météorologiques de plus de 4000 aéroports (messages METAR et TAF).

Les stations disponibles sont représentées par des disques jaunes et rouges sur la carte.

Passer la souris dessus pour voir le nom de la station.

Cliquer dessus pour voir les observations et prévisions météorologiques.

Pour changer de carte: cliquez sur les boutons verts avec une croix noire pour zoomer, sur le bouton vert avec un tiret pour effectuer un zoom arrière, ou sur les flèches vertes pour les cartes adjacentes.


METAR-TAF: